East Hampstead, New Hampshire
Current Conditions -  °F | °C
As of 2:21 AM on Thursday 23 Oct 2014 (Local Time) from KLWM Reporting Station
Light Rain Light Rain  
Wind Chill: 42°   Ceiling: 1100
Heat Index: 49°   Visibility: 7mi
Dew Point: 46°   Wind: 18mph
Humidity: 90%   Direction: 30°NNE
Pressure: 29.81"   Gusts: 26mph
Location:  42.89°N, 71.14°W
Report Text: KLWM 230621Z AUTO 03016G23KT 7SM -RA BKN011 OVC015 09/08 A2981 RMK AO2 PK WND 03026/0556 P0005 T00940078
Loading
Personal Weather Stations






























Interactive Weather Map New forecast layout! Learn more

10-Day Weather Forecast

Advertisements
Track Severe Weather on mobile